sensor_id;sensor_type;location;lat;lon;timestamp;temperature;humidity
22742;DHT22;11538;48.884;8.696;2023-06-04T00:02:25;16.70;99.90
22742;DHT22;11538;48.884;8.696;2023-06-04T00:04:52;16.70;99.90
22742;DHT22;11538;48.884;8.696;2023-06-04T00:07:19;16.70;99.90
22742;DHT22;11538;48.884;8.696;2023-06-04T00:09:46;16.60;99.90
22742;DHT22;11538;48.884;8.696;2023-06-04T00:12:14;16.60;99.90
22742;DHT22;11538;48.884;8.696;2023-06-04T00:14:41;16.60;99.90
22742;DHT22;11538;48.884;8.696;2023-06-04T00:17:09;16.50;99.90
22742;DHT22;11538;48.884;8.696;2023-06-04T00:19:39;16.50;99.90
22742;DHT22;11538;48.884;8.696;2023-06-04T00:22:07;16.50;99.90
22742;DHT22;11538;48.884;8.696;2023-06-04T00:24:36;16.40;99.90
22742;DHT22;11538;48.884;8.696;2023-06-04T00:27:05;16.20;99.90
22742;DHT22;11538;48.884;8.696;2023-06-04T00:29:36;16.20;99.90
22742;DHT22;11538;48.884;8.696;2023-06-04T00:32:03;16.10;99.90
22742;DHT22;11538;48.884;8.696;2023-06-04T00:34:32;16.00;99.90
22742;DHT22;11538;48.884;8.696;2023-06-04T00:36:59;15.90;99.90
22742;DHT22;11538;48.884;8.696;2023-06-04T00:39:27;15.90;99.90
22742;DHT22;11538;48.884;8.696;2023-06-04T00:41:55;15.80;99.90
22742;DHT22;11538;48.884;8.696;2023-06-04T00:44:22;15.80;99.90
22742;DHT22;11538;48.884;8.696;2023-06-04T00:46:52;15.80;99.90
22742;DHT22;11538;48.884;8.696;2023-06-04T00:49:20;15.80;99.90
22742;DHT22;11538;48.884;8.696;2023-06-04T00:51:47;15.70;99.90
22742;DHT22;11538;48.884;8.696;2023-06-04T00:54:15;15.70;99.90
22742;DHT22;11538;48.884;8.696;2023-06-04T00:56:44;15.70;99.90
22742;DHT22;11538;48.884;8.696;2023-06-04T00:59:11;15.70;99.90
22742;DHT22;11538;48.884;8.696;2023-06-04T01:01:48;15.60;99.90
22742;DHT22;11538;48.884;8.696;2023-06-04T01:04:26;15.60;99.90
22742;DHT22;11538;48.884;8.696;2023-06-04T01:06:57;15.50;99.90
22742;DHT22;11538;48.884;8.696;2023-06-04T01:09:29;15.40;99.90
22742;DHT22;11538;48.884;8.696;2023-06-04T01:11:57;15.30;99.90
22742;DHT22;11538;48.884;8.696;2023-06-04T01:14:25;15.20;99.90
22742;DHT22;11538;48.884;8.696;2023-06-04T01:17:02;15.10;99.90
22742;DHT22;11538;48.884;8.696;2023-06-04T01:25:45;15.00;99.90
22742;DHT22;11538;48.884;8.696;2023-06-04T01:28:16;14.90;99.90
22742;DHT22;11538;48.884;8.696;2023-06-04T01:30:45;14.80;99.90
22742;DHT22;11538;48.884;8.696;2023-06-04T01:33:16;14.80;99.90
22742;DHT22;11538;48.884;8.696;2023-06-04T01:35:45;14.70;99.90
22742;DHT22;11538;48.884;8.696;2023-06-04T01:38:12;14.70;99.90
22742;DHT22;11538;48.884;8.696;2023-06-04T01:40:39;14.70;99.90
22742;DHT22;11538;48.884;8.696;2023-06-04T01:43:05;14.70;99.90
22742;DHT22;11538;48.884;8.696;2023-06-04T01:45:33;14.70;99.90
22742;DHT22;11538;48.884;8.696;2023-06-04T01:48:02;14.60;99.90
22742;DHT22;11538;48.884;8.696;2023-06-04T01:50:29;14.50;99.90
22742;DHT22;11538;48.884;8.696;2023-06-04T01:52:57;14.50;99.90
22742;DHT22;11538;48.884;8.696;2023-06-04T01:55:24;14.50;99.90
22742;DHT22;11538;48.884;8.696;2023-06-04T01:57:52;14.50;99.90
22742;DHT22;11538;48.884;8.696;2023-06-04T02:00:19;14.60;99.90
22742;DHT22;11538;48.884;8.696;2023-06-04T02:02:46;14.60;99.90
22742;DHT22;11538;48.884;8.696;2023-06-04T02:05:16;14.60;99.90
22742;DHT22;11538;48.884;8.696;2023-06-04T02:07:45;14.60;99.90
22742;DHT22;11538;48.884;8.696;2023-06-04T02:10:16;14.60;99.90
22742;DHT22;11538;48.884;8.696;2023-06-04T02:12:58;14.50;99.90
22742;DHT22;11538;48.884;8.696;2023-06-04T02:15:27;14.40;99.90
22742;DHT22;11538;48.884;8.696;2023-06-04T02:17:57;14.40;99.90
22742;DHT22;11538;48.884;8.696;2023-06-04T02:20:27;14.40;99.90
22742;DHT22;11538;48.884;8.696;2023-06-04T02:22:55;14.40;99.90
22742;DHT22;11538;48.884;8.696;2023-06-04T02:25:22;14.40;99.90
22742;DHT22;11538;48.884;8.696;2023-06-04T02:27:50;14.40;99.90
22742;DHT22;11538;48.884;8.696;2023-06-04T02:30:17;14.40;99.90
22742;DHT22;11538;48.884;8.696;2023-06-04T02:32:44;14.40;99.90
22742;DHT22;11538;48.884;8.696;2023-06-04T02:35:16;14.30;99.90
22742;DHT22;11538;48.884;8.696;2023-06-04T02:37:44;14.30;99.90
22742;DHT22;11538;48.884;8.696;2023-06-04T02:40:11;14.20;99.90
22742;DHT22;11538;48.884;8.696;2023-06-04T02:42:38;14.20;99.90
22742;DHT22;11538;48.884;8.696;2023-06-04T02:45:05;14.10;99.90
22742;DHT22;11538;48.884;8.696;2023-06-04T02:47:32;14.10;99.90
22742;DHT22;11538;48.884;8.696;2023-06-04T02:49:59;14.10;99.90
22742;DHT22;11538;48.884;8.696;2023-06-04T02:52:26;14.10;99.90
22742;DHT22;11538;48.884;8.696;2023-06-04T02:54:53;14.10;99.90
22742;DHT22;11538;48.884;8.696;2023-06-04T02:57:20;14.00;99.90
22742;DHT22;11538;48.884;8.696;2023-06-04T02:59:47;13.90;99.90
22742;DHT22;11538;48.884;8.696;2023-06-04T03:02:13;13.70;99.90
22742;DHT22;11538;48.884;8.696;2023-06-04T03:04:41;13.60;99.90
22742;DHT22;11538;48.884;8.696;2023-06-04T03:07:09;13.50;99.90
22742;DHT22;11538;48.884;8.696;2023-06-04T03:09:38;13.50;99.90
22742;DHT22;11538;48.884;8.696;2023-06-04T03:12:05;13.50;99.90
22742;DHT22;11538;48.884;8.696;2023-06-04T03:14:32;13.50;99.90
22742;DHT22;11538;48.884;8.696;2023-06-04T03:17:02;13.50;99.90
22742;DHT22;11538;48.884;8.696;2023-06-04T03:19:38;13.60;99.90
22742;DHT22;11538;48.884;8.696;2023-06-04T03:22:08;13.60;99.90
22742;DHT22;11538;48.884;8.696;2023-06-04T03:24:38;13.50;99.90
22742;DHT22;11538;48.884;8.696;2023-06-04T03:27:07;13.40;99.90
22742;DHT22;11538;48.884;8.696;2023-06-04T03:29:35;13.40;99.90
22742;DHT22;11538;48.884;8.696;2023-06-04T03:32:03;13.40;99.90
22742;DHT22;11538;48.884;8.696;2023-06-04T03:34:31;13.50;99.90
22742;DHT22;11538;48.884;8.696;2023-06-04T03:37:01;13.50;99.90
22742;DHT22;11538;48.884;8.696;2023-06-04T03:39:29;13.60;99.90
22742;DHT22;11538;48.884;8.696;2023-06-04T03:41:56;13.60;99.90
22742;DHT22;11538;48.884;8.696;2023-06-04T03:44:23;13.60;99.90
22742;DHT22;11538;48.884;8.696;2023-06-04T03:46:50;13.60;99.90
22742;DHT22;11538;48.884;8.696;2023-06-04T03:49:17;13.40;99.90
22742;DHT22;11538;48.884;8.696;2023-06-04T03:51:44;13.30;99.90
22742;DHT22;11538;48.884;8.696;2023-06-04T03:54:11;13.30;99.90
22742;DHT22;11538;48.884;8.696;2023-06-04T03:56:38;13.20;99.90
22742;DHT22;11538;48.884;8.696;2023-06-04T03:59:06;13.30;99.90
22742;DHT22;11538;48.884;8.696;2023-06-04T04:01:32;13.30;99.90
22742;DHT22;11538;48.884;8.696;2023-06-04T04:04:00;13.30;99.90
22742;DHT22;11538;48.884;8.696;2023-06-04T04:06:27;13.30;99.90
22742;DHT22;11538;48.884;8.696;2023-06-04T04:08:54;13.40;99.90
22742;DHT22;11538;48.884;8.696;2023-06-04T04:11:22;13.40;99.90
22742;DHT22;11538;48.884;8.696;2023-06-04T04:13:49;13.40;99.90
22742;DHT22;11538;48.884;8.696;2023-06-04T04:16:16;13.30;99.90
22742;DHT22;11538;48.884;8.696;2023-06-04T04:18:43;13.40;99.90
22742;DHT22;11538;48.884;8.696;2023-06-04T04:21:11;13.30;99.90
22742;DHT22;11538;48.884;8.696;2023-06-04T04:23:39;13.30;99.90
22742;DHT22;11538;48.884;8.696;2023-06-04T04:26:08;13.30;99.90
22742;DHT22;11538;48.884;8.696;2023-06-04T04:28:37;13.30;99.90
22742;DHT22;11538;48.884;8.696;2023-06-04T04:31:04;13.30;99.90
22742;DHT22;11538;48.884;8.696;2023-06-04T04:33:35;13.40;99.90
22742;DHT22;11538;48.884;8.696;2023-06-04T04:36:06;13.40;99.90
22742;DHT22;11538;48.884;8.696;2023-06-04T04:38:39;13.50;99.90
22742;DHT22;11538;48.884;8.696;2023-06-04T04:41:07;13.60;99.90
22742;DHT22;11538;48.884;8.696;2023-06-04T04:43:36;13.70;99.90
22742;DHT22;11538;48.884;8.696;2023-06-04T04:46:05;13.70;99.90
22742;DHT22;11538;48.884;8.696;2023-06-04T04:48:32;13.80;99.90
22742;DHT22;11538;48.884;8.696;2023-06-04T04:50:59;13.80;99.90
22742;DHT22;11538;48.884;8.696;2023-06-04T04:53:26;13.90;99.90
22742;DHT22;11538;48.884;8.696;2023-06-04T04:55:54;13.90;99.90
22742;DHT22;11538;48.884;8.696;2023-06-04T04:58:21;13.90;99.90
22742;DHT22;11538;48.884;8.696;2023-06-04T05:00:48;14.00;99.90
22742;DHT22;11538;48.884;8.696;2023-06-04T05:03:14;14.00;99.90
22742;DHT22;11538;48.884;8.696;2023-06-04T05:05:42;14.10;99.90
22742;DHT22;11538;48.884;8.696;2023-06-04T05:08:10;14.10;99.90
22742;DHT22;11538;48.884;8.696;2023-06-04T05:10:38;14.20;99.90
22742;DHT22;11538;48.884;8.696;2023-06-04T05:13:05;14.20;99.90
22742;DHT22;11538;48.884;8.696;2023-06-04T05:15:32;14.30;99.90
22742;DHT22;11538;48.884;8.696;2023-06-04T05:17:59;14.30;99.90
22742;DHT22;11538;48.884;8.696;2023-06-04T05:20:27;14.40;99.90
22742;DHT22;11538;48.884;8.696;2023-06-04T05:22:55;14.50;99.90
22742;DHT22;11538;48.884;8.696;2023-06-04T05:25:22;14.60;99.90
22742;DHT22;11538;48.884;8.696;2023-06-04T05:27:49;14.70;99.90
22742;DHT22;11538;48.884;8.696;2023-06-04T05:30:17;14.70;99.90
22742;DHT22;11538;48.884;8.696;2023-06-04T05:32:44;14.80;99.90
22742;DHT22;11538;48.884;8.696;2023-06-04T05:35:11;14.80;99.90
22742;DHT22;11538;48.884;8.696;2023-06-04T05:37:38;14.90;99.90
22742;DHT22;11538;48.884;8.696;2023-06-04T05:40:08;14.90;99.90
22742;DHT22;11538;48.884;8.696;2023-06-04T05:42:36;15.00;99.90
22742;DHT22;11538;48.884;8.696;2023-06-04T05:45:05;15.10;99.90
22742;DHT22;11538;48.884;8.696;2023-06-04T05:47:34;15.20;99.90
22742;DHT22;11538;48.884;8.696;2023-06-04T05:50:01;15.30;99.90
22742;DHT22;11538;48.884;8.696;2023-06-04T05:52:29;15.30;99.90
22742;DHT22;11538;48.884;8.696;2023-06-04T05:54:55;15.40;99.90
22742;DHT22;11538;48.884;8.696;2023-06-04T05:57:22;15.60;99.90
22742;DHT22;11538;48.884;8.696;2023-06-04T05:59:49;15.60;99.90
22742;DHT22;11538;48.884;8.696;2023-06-04T06:02:16;15.80;99.90
22742;DHT22;11538;48.884;8.696;2023-06-04T06:04:43;15.90;99.90
22742;DHT22;11538;48.884;8.696;2023-06-04T06:07:10;16.00;99.90
22742;DHT22;11538;48.884;8.696;2023-06-04T06:09:37;16.10;99.90
22742;DHT22;11538;48.884;8.696;2023-06-04T06:12:04;16.20;99.90
22742;DHT22;11538;48.884;8.696;2023-06-04T06:14:32;16.30;99.90
22742;DHT22;11538;48.884;8.696;2023-06-04T06:17:00;16.40;99.90
22742;DHT22;11538;48.884;8.696;2023-06-04T06:19:29;16.50;99.90
22742;DHT22;11538;48.884;8.696;2023-06-04T06:21:56;16.60;99.90
22742;DHT22;11538;48.884;8.696;2023-06-04T06:24:25;16.60;99.90
22742;DHT22;11538;48.884;8.696;2023-06-04T06:26:52;16.70;99.90
22742;DHT22;11538;48.884;8.696;2023-06-04T06:29:19;16.70;99.90
22742;DHT22;11538;48.884;8.696;2023-06-04T06:31:46;16.80;99.90
22742;DHT22;11538;48.884;8.696;2023-06-04T06:34:13;16.80;99.90
22742;DHT22;11538;48.884;8.696;2023-06-04T06:36:40;16.90;99.90
22742;DHT22;11538;48.884;8.696;2023-06-04T06:39:08;17.00;99.90
22742;DHT22;11538;48.884;8.696;2023-06-04T06:41:36;17.10;99.90
22742;DHT22;11538;48.884;8.696;2023-06-04T06:44:05;17.10;99.90
22742;DHT22;11538;48.884;8.696;2023-06-04T06:46:32;17.20;99.90
22742;DHT22;11538;48.884;8.696;2023-06-04T06:48:59;17.30;99.90
22742;DHT22;11538;48.884;8.696;2023-06-04T06:51:26;17.50;99.90
22742;DHT22;11538;48.884;8.696;2023-06-04T06:53:53;17.50;99.90
22742;DHT22;11538;48.884;8.696;2023-06-04T06:56:20;17.60;99.90
22742;DHT22;11538;48.884;8.696;2023-06-04T06:58:47;17.70;99.90
22742;DHT22;11538;48.884;8.696;2023-06-04T07:01:14;17.80;99.90
22742;DHT22;11538;48.884;8.696;2023-06-04T07:03:41;18.00;99.90
22742;DHT22;11538;48.884;8.696;2023-06-04T07:06:08;18.10;99.90
22742;DHT22;11538;48.884;8.696;2023-06-04T07:08:36;18.20;99.90
22742;DHT22;11538;48.884;8.696;2023-06-04T07:11:03;18.30;99.90
22742;DHT22;11538;48.884;8.696;2023-06-04T07:13:30;18.50;99.90
22742;DHT22;11538;48.884;8.696;2023-06-04T07:16:02;18.60;99.90
22742;DHT22;11538;48.884;8.696;2023-06-04T07:18:29;18.70;99.90
22742;DHT22;11538;48.884;8.696;2023-06-04T07:20:56;18.90;99.90
22742;DHT22;11538;48.884;8.696;2023-06-04T07:23:23;19.00;99.90
22742;DHT22;11538;48.884;8.696;2023-06-04T07:25:50;19.10;99.90
22742;DHT22;11538;48.884;8.696;2023-06-04T07:28:18;19.30;99.90
22742;DHT22;11538;48.884;8.696;2023-06-04T07:30:45;19.40;99.90
22742;DHT22;11538;48.884;8.696;2023-06-04T07:33:12;19.40;99.90
22742;DHT22;11538;48.884;8.696;2023-06-04T07:35:39;19.50;99.90
22742;DHT22;11538;48.884;8.696;2023-06-04T07:38:06;19.60;99.90
22742;DHT22;11538;48.884;8.696;2023-06-04T07:40:33;19.60;99.90
22742;DHT22;11538;48.884;8.696;2023-06-04T07:43:00;19.60;99.90
22742;DHT22;11538;48.884;8.696;2023-06-04T07:45:27;19.70;99.90
22742;DHT22;11538;48.884;8.696;2023-06-04T07:47:59;19.90;99.90
22742;DHT22;11538;48.884;8.696;2023-06-04T07:50:26;20.00;99.90
22742;DHT22;11538;48.884;8.696;2023-06-04T07:52:53;20.20;99.90
22742;DHT22;11538;48.884;8.696;2023-06-04T07:55:20;20.40;99.90
22742;DHT22;11538;48.884;8.696;2023-06-04T07:57:47;20.60;99.90
22742;DHT22;11538;48.884;8.696;2023-06-04T08:00:14;20.70;99.90
22742;DHT22;11538;48.884;8.696;2023-06-04T08:02:42;20.90;99.90
22742;DHT22;11538;48.884;8.696;2023-06-04T08:05:09;21.00;99.90
22742;DHT22;11538;48.884;8.696;2023-06-04T08:07:36;21.20;99.90
22742;DHT22;11538;48.884;8.696;2023-06-04T08:10:03;21.40;99.90
22742;DHT22;11538;48.884;8.696;2023-06-04T08:12:31;21.60;99.90
22742;DHT22;11538;48.884;8.696;2023-06-04T08:14:58;21.70;99.90
22742;DHT22;11538;48.884;8.696;2023-06-04T08:17:25;21.90;99.90
22742;DHT22;11538;48.884;8.696;2023-06-04T08:19:52;22.00;99.90
22742;DHT22;11538;48.884;8.696;2023-06-04T08:22:19;22.20;99.90
22742;DHT22;11538;48.884;8.696;2023-06-04T08:24:46;22.40;99.90
22742;DHT22;11538;48.884;8.696;2023-06-04T08:27:13;22.50;99.90
22742;DHT22;11538;48.884;8.696;2023-06-04T08:29:40;22.70;99.90
22742;DHT22;11538;48.884;8.696;2023-06-04T08:32:07;22.80;99.90
22742;DHT22;11538;48.884;8.696;2023-06-04T08:34:34;23.00;99.90
22742;DHT22;11538;48.884;8.696;2023-06-04T08:37:02;23.20;99.90
22742;DHT22;11538;48.884;8.696;2023-06-04T08:39:28;23.30;99.90
22742;DHT22;11538;48.884;8.696;2023-06-04T08:42:00;23.50;99.90
22742;DHT22;11538;48.884;8.696;2023-06-04T08:44:30;23.60;99.90
22742;DHT22;11538;48.884;8.696;2023-06-04T08:47:04;23.80;99.90
22742;DHT22;11538;48.884;8.696;2023-06-04T08:49:35;23.90;99.90
22742;DHT22;11538;48.884;8.696;2023-06-04T08:52:03;24.10;99.90
22742;DHT22;11538;48.884;8.696;2023-06-04T08:54:31;24.20;99.90
22742;DHT22;11538;48.884;8.696;2023-06-04T08:57:00;24.30;99.90
22742;DHT22;11538;48.884;8.696;2023-06-04T08:59:28;24.40;99.90
22742;DHT22;11538;48.884;8.696;2023-06-04T09:01:55;24.60;99.90
22742;DHT22;11538;48.884;8.696;2023-06-04T09:04:23;24.60;99.90
22742;DHT22;11538;48.884;8.696;2023-06-04T09:06:52;24.80;99.90
22742;DHT22;11538;48.884;8.696;2023-06-04T09:09:21;24.90;99.90
22742;DHT22;11538;48.884;8.696;2023-06-04T09:11:55;25.00;99.90
22742;DHT22;11538;48.884;8.696;2023-06-04T09:14:26;25.10;99.90
22742;DHT22;11538;48.884;8.696;2023-06-04T09:16:54;25.30;99.90
22742;DHT22;11538;48.884;8.696;2023-06-04T09:19:25;25.40;99.90
22742;DHT22;11538;48.884;8.696;2023-06-04T09:21:56;25.60;99.90
22742;DHT22;11538;48.884;8.696;2023-06-04T09:24:25;25.70;99.90
22742;DHT22;11538;48.884;8.696;2023-06-04T09:27:14;25.80;99.90
22742;DHT22;11538;48.884;8.696;2023-06-04T09:29:52;26.00;99.90
22742;DHT22;11538;48.884;8.696;2023-06-04T09:32:29;26.10;99.90
22742;DHT22;11538;48.884;8.696;2023-06-04T09:35:16;26.20;99.90
22742;DHT22;11538;48.884;8.696;2023-06-04T09:37:56;26.30;99.90
22742;DHT22;11538;48.884;8.696;2023-06-04T09:40:24;26.50;99.90
22742;DHT22;11538;48.884;8.696;2023-06-04T09:43:01;26.60;99.90
22742;DHT22;11538;48.884;8.696;2023-06-04T09:45:30;26.60;99.90
22742;DHT22;11538;48.884;8.696;2023-06-04T09:47:59;26.70;99.90
22742;DHT22;11538;48.884;8.696;2023-06-04T09:50:32;26.80;99.90
22742;DHT22;11538;48.884;8.696;2023-06-04T09:53:18;26.90;99.90
22742;DHT22;11538;48.884;8.696;2023-06-04T09:56:02;27.10;99.90
22742;DHT22;11538;48.884;8.696;2023-06-04T09:58:31;27.20;99.90
22742;DHT22;11538;48.884;8.696;2023-06-04T10:01:05;27.30;99.90
22742;DHT22;11538;48.884;8.696;2023-06-04T10:03:35;27.40;99.90
22742;DHT22;11538;48.884;8.696;2023-06-04T10:06:04;27.50;99.90
22742;DHT22;11538;48.884;8.696;2023-06-04T10:08:33;27.50;99.90
22742;DHT22;11538;48.884;8.696;2023-06-04T10:11:04;27.70;99.90
22742;DHT22;11538;48.884;8.696;2023-06-04T10:16:19;27.90;99.90
22742;DHT22;11538;48.884;8.696;2023-06-04T10:18:59;28.00;99.90
22742;DHT22;11538;48.884;8.696;2023-06-04T10:21:28;28.00;99.90
22742;DHT22;11538;48.884;8.696;2023-06-04T10:24:01;28.10;99.90
22742;DHT22;11538;48.884;8.696;2023-06-04T10:26:28;28.10;99.90
22742;DHT22;11538;48.884;8.696;2023-06-04T10:28:57;28.20;99.90
22742;DHT22;11538;48.884;8.696;2023-06-04T10:31:24;28.40;99.90
22742;DHT22;11538;48.884;8.696;2023-06-04T10:33:56;28.50;99.90
22742;DHT22;11538;48.884;8.696;2023-06-04T10:36:24;28.60;99.90
22742;DHT22;11538;48.884;8.696;2023-06-04T10:38:53;28.70;99.90
22742;DHT22;11538;48.884;8.696;2023-06-04T10:41:23;28.80;99.90
22742;DHT22;11538;48.884;8.696;2023-06-04T10:43:51;28.90;99.90
22742;DHT22;11538;48.884;8.696;2023-06-04T10:46:40;29.00;99.90
22742;DHT22;11538;48.884;8.696;2023-06-04T10:49:11;29.10;99.90
22742;DHT22;11538;48.884;8.696;2023-06-04T10:51:39;29.30;99.90
22742;DHT22;11538;48.884;8.696;2023-06-04T10:54:06;29.50;99.90
22742;DHT22;11538;48.884;8.696;2023-06-04T10:56:35;29.60;99.90
22742;DHT22;11538;48.884;8.696;2023-06-04T10:59:14;29.70;99.90
22742;DHT22;11538;48.884;8.696;2023-06-04T11:01:41;29.80;99.90
22742;DHT22;11538;48.884;8.696;2023-06-04T11:04:23;29.90;99.90
22742;DHT22;11538;48.884;8.696;2023-06-04T11:07:07;30.00;99.90
22742;DHT22;11538;48.884;8.696;2023-06-04T11:09:47;30.20;99.90
22742;DHT22;11538;48.884;8.696;2023-06-04T11:12:15;30.30;99.90
22742;DHT22;11538;48.884;8.696;2023-06-04T11:14:58;30.40;99.90
22742;DHT22;11538;48.884;8.696;2023-06-04T11:17:26;30.60;99.90
22742;DHT22;11538;48.884;8.696;2023-06-04T11:19:53;30.70;99.90
22742;DHT22;11538;48.884;8.696;2023-06-04T11:22:22;30.90;99.90
22742;DHT22;11538;48.884;8.696;2023-06-04T11:24:49;31.00;99.90
22742;DHT22;11538;48.884;8.696;2023-06-04T11:27:22;31.20;99.90
22742;DHT22;11538;48.884;8.696;2023-06-04T11:30:03;31.40;99.90
22742;DHT22;11538;48.884;8.696;2023-06-04T11:32:33;31.60;99.90
22742;DHT22;11538;48.884;8.696;2023-06-04T11:35:04;31.80;99.90
22742;DHT22;11538;48.884;8.696;2023-06-04T11:37:33;32.10;99.90
22742;DHT22;11538;48.884;8.696;2023-06-04T11:40:01;32.20;99.90
22742;DHT22;11538;48.884;8.696;2023-06-04T11:42:29;32.40;99.90
22742;DHT22;11538;48.884;8.696;2023-06-04T11:44:57;32.60;99.90
22742;DHT22;11538;48.884;8.696;2023-06-04T11:47:24;32.80;99.90
22742;DHT22;11538;48.884;8.696;2023-06-04T11:49:55;32.90;99.90
22742;DHT22;11538;48.884;8.696;2023-06-04T11:52:23;33.00;99.90
22742;DHT22;11538;48.884;8.696;2023-06-04T11:54:50;33.10;99.90
22742;DHT22;11538;48.884;8.696;2023-06-04T11:57:18;33.20;99.90
22742;DHT22;11538;48.884;8.696;2023-06-04T11:59:45;33.40;99.90
22742;DHT22;11538;48.884;8.696;2023-06-04T12:02:12;33.60;99.90
22742;DHT22;11538;48.884;8.696;2023-06-04T12:04:39;33.80;99.90
22742;DHT22;11538;48.884;8.696;2023-06-04T12:07:06;33.90;99.90
22742;DHT22;11538;48.884;8.696;2023-06-04T12:09:35;34.00;99.90
22742;DHT22;11538;48.884;8.696;2023-06-04T12:12:06;34.10;99.90
22742;DHT22;11538;48.884;8.696;2023-06-04T12:14:35;34.20;99.90
22742;DHT22;11538;48.884;8.696;2023-06-04T12:17:06;34.20;99.90
22742;DHT22;11538;48.884;8.696;2023-06-04T12:19:49;34.40;99.90
22742;DHT22;11538;48.884;8.696;2023-06-04T12:22:17;34.60;99.90
22742;DHT22;11538;48.884;8.696;2023-06-04T12:24:58;34.80;99.90
22742;DHT22;11538;48.884;8.696;2023-06-04T12:27:27;34.90;99.90
22742;DHT22;11538;48.884;8.696;2023-06-04T12:32:22;35.20;99.90
22742;DHT22;11538;48.884;8.696;2023-06-04T12:34:50;35.30;99.90
22742;DHT22;11538;48.884;8.696;2023-06-04T12:37:17;35.30;99.90
22742;DHT22;11538;48.884;8.696;2023-06-04T12:39:44;35.30;99.90
22742;DHT22;11538;48.884;8.696;2023-06-04T12:42:11;35.40;99.90
22742;DHT22;11538;48.884;8.696;2023-06-04T12:44:41;35.60;99.90
22742;DHT22;11538;48.884;8.696;2023-06-04T12:47:10;35.70;99.90
22742;DHT22;11538;48.884;8.696;2023-06-04T12:49:38;35.70;99.90
22742;DHT22;11538;48.884;8.696;2023-06-04T12:52:05;35.70;99.90
22742;DHT22;11538;48.884;8.696;2023-06-04T12:54:32;35.80;99.90
22742;DHT22;11538;48.884;8.696;2023-06-04T12:56:59;35.90;99.90
22742;DHT22;11538;48.884;8.696;2023-06-04T12:59:27;36.10;99.90
22742;DHT22;11538;48.884;8.696;2023-06-04T13:01:55;36.20;99.90
22742;DHT22;11538;48.884;8.696;2023-06-04T13:04:23;36.20;99.90
22742;DHT22;11538;48.884;8.696;2023-06-04T13:06:51;36.30;99.90
22742;DHT22;11538;48.884;8.696;2023-06-04T13:09:26;36.30;99.90
22742;DHT22;11538;48.884;8.696;2023-06-04T13:11:57;36.40;99.90
22742;DHT22;11538;48.884;8.696;2023-06-04T13:14:24;36.40;99.90
22742;DHT22;11538;48.884;8.696;2023-06-04T13:16:50;36.50;99.90
22742;DHT22;11538;48.884;8.696;2023-06-04T13:19:18;36.40;99.90
22742;DHT22;11538;48.884;8.696;2023-06-04T13:21:50;36.50;99.90
22742;DHT22;11538;48.884;8.696;2023-06-04T13:24:17;36.50;99.90
22742;DHT22;11538;48.884;8.696;2023-06-04T13:26:44;36.50;99.90
22742;DHT22;11538;48.884;8.696;2023-06-04T13:29:11;36.50;99.90
22742;DHT22;11538;48.884;8.696;2023-06-04T13:31:38;36.50;99.90
22742;DHT22;11538;48.884;8.696;2023-06-04T13:34:06;36.40;99.90
22742;DHT22;11538;48.884;8.696;2023-06-04T13:36:52;36.50;99.90
22742;DHT22;11538;48.884;8.696;2023-06-04T13:39:19;36.50;99.90
22742;DHT22;11538;48.884;8.696;2023-06-04T13:41:46;36.50;99.90
22742;DHT22;11538;48.884;8.696;2023-06-04T13:44:13;36.50;99.90
22742;DHT22;11538;48.884;8.696;2023-06-04T13:46:41;36.50;99.90
22742;DHT22;11538;48.884;8.696;2023-06-04T13:49:08;36.50;99.90
22742;DHT22;11538;48.884;8.696;2023-06-04T13:51:35;36.50;99.90
22742;DHT22;11538;48.884;8.696;2023-06-04T13:54:02;36.60;99.90
22742;DHT22;11538;48.884;8.696;2023-06-04T13:56:29;36.50;99.90
22742;DHT22;11538;48.884;8.696;2023-06-04T13:58:56;36.40;99.90
22742;DHT22;11538;48.884;8.696;2023-06-04T14:01:23;36.30;99.90
22742;DHT22;11538;48.884;8.696;2023-06-04T14:03:50;36.30;99.90
22742;DHT22;11538;48.884;8.696;2023-06-04T14:06:19;36.30;99.90
22742;DHT22;11538;48.884;8.696;2023-06-04T14:08:46;36.20;99.90
22742;DHT22;11538;48.884;8.696;2023-06-04T14:11:13;36.10;99.90
22742;DHT22;11538;48.884;8.696;2023-06-04T14:13:39;36.00;99.90
22742;DHT22;11538;48.884;8.696;2023-06-04T14:16:08;36.00;99.90
22742;DHT22;11538;48.884;8.696;2023-06-04T14:18:35;36.00;99.90
22742;DHT22;11538;48.884;8.696;2023-06-04T14:21:02;35.90;99.90
22742;DHT22;11538;48.884;8.696;2023-06-04T14:23:29;35.70;99.90
22742;DHT22;11538;48.884;8.696;2023-06-04T14:25:56;35.60;99.90
22742;DHT22;11538;48.884;8.696;2023-06-04T14:28:23;35.50;99.90
22742;DHT22;11538;48.884;8.696;2023-06-04T14:30:49;35.30;99.90
22742;DHT22;11538;48.884;8.696;2023-06-04T14:33:17;35.20;99.90
22742;DHT22;11538;48.884;8.696;2023-06-04T14:35:44;35.10;99.90
22742;DHT22;11538;48.884;8.696;2023-06-04T14:38:14;34.90;99.90
22742;DHT22;11538;48.884;8.696;2023-06-04T14:40:42;34.70;99.90
22742;DHT22;11538;48.884;8.696;2023-06-04T14:43:11;34.60;99.90
22742;DHT22;11538;48.884;8.696;2023-06-04T14:45:38;34.50;99.90
22742;DHT22;11538;48.884;8.696;2023-06-04T14:48:06;34.40;99.90
22742;DHT22;11538;48.884;8.696;2023-06-04T14:50:41;34.30;99.90
22742;DHT22;11538;48.884;8.696;2023-06-04T14:53:08;34.10;99.90
22742;DHT22;11538;48.884;8.696;2023-06-04T14:55:36;34.00;99.90
22742;DHT22;11538;48.884;8.696;2023-06-04T14:58:03;33.90;99.90
22742;DHT22;11538;48.884;8.696;2023-06-04T15:00:31;33.90;99.90
22742;DHT22;11538;48.884;8.696;2023-06-04T15:02:59;33.70;99.90
22742;DHT22;11538;48.884;8.696;2023-06-04T15:05:31;33.60;99.90
22742;DHT22;11538;48.884;8.696;2023-06-04T15:07:58;33.50;99.90
22742;DHT22;11538;48.884;8.696;2023-06-04T15:10:26;33.40;99.90
22742;DHT22;11538;48.884;8.696;2023-06-04T15:12:53;33.20;99.90
22742;DHT22;11538;48.884;8.696;2023-06-04T15:15:20;33.10;99.90
22742;DHT22;11538;48.884;8.696;2023-06-04T15:17:48;32.90;99.90
22742;DHT22;11538;48.884;8.696;2023-06-04T15:20:16;32.80;99.90
22742;DHT22;11538;48.884;8.696;2023-06-04T15:22:43;32.70;99.90
22742;DHT22;11538;48.884;8.696;2023-06-04T15:25:10;32.60;99.90
22742;DHT22;11538;48.884;8.696;2023-06-04T15:27:37;32.50;99.90
22742;DHT22;11538;48.884;8.696;2023-06-04T15:30:05;32.50;99.90
22742;DHT22;11538;48.884;8.696;2023-06-04T15:32:33;32.40;99.90
22742;DHT22;11538;48.884;8.696;2023-06-04T15:35:01;32.30;99.90
22742;DHT22;11538;48.884;8.696;2023-06-04T15:37:29;32.10;99.90
22742;DHT22;11538;48.884;8.696;2023-06-04T15:39:55;32.00;99.90
22742;DHT22;11538;48.884;8.696;2023-06-04T15:42:24;32.00;99.90
22742;DHT22;11538;48.884;8.696;2023-06-04T15:44:51;31.90;99.90
22742;DHT22;11538;48.884;8.696;2023-06-04T15:47:18;31.80;99.90
22742;DHT22;11538;48.884;8.696;2023-06-04T15:49:45;31.70;99.90
22742;DHT22;11538;48.884;8.696;2023-06-04T15:52:12;31.70;99.90